Time;durP1;ratioP1;P1;durP2;ratioP2;P2;SDS_P1;SDS_P2;PMS_P1;PMS_P2;Temp;Humidity;BMP_temperature;BMP_pressure;BME280_temperature;BME280_humidity;BME280_pressure;Samples;Min_cycle;Max_cycle;Signal;HPM_P1;HPM_P2
2022/04/16 00:00:11;;;;;;;0.17;0.17;;;;;;;;;;5076627;28;20274;-77
2022/04/16 00:02:38;;;;;;;0.10;0.10;;;;;;;;;;5117858;28;20434;-77
2022/04/16 00:05:04;;;;;;;0.10;0.10;;;;;;;;;;5086185;28;20199;-77
2022/04/16 00:07:30;;;;;;;0.20;0.20;;;;;;;;;;5074413;28;20284;-77
2022/04/16 00:09:57;;;;;;;0.10;0.10;;;;;;;;;;5086091;28;20206;-76
2022/04/16 00:12:24;;;;;;;0.10;0.10;;;;;;;;;;5108158;28;20240;-78
2022/04/16 00:14:51;;;;;;;0.10;0.10;;;;;;;;;;5086298;28;20206;-76
2022/04/16 00:17:17;;;;;;;0.20;0.20;;;;;;;;;;5108235;28;20537;-77
2022/04/16 00:19:44;;;;;;;0.20;0.20;;;;;;;;;;5085746;28;20205;-77
2022/04/16 00:22:12;;;;;;;0.10;0.10;;;;;;;;;;5106894;28;20260;-77
2022/04/16 00:24:38;;;;;;;0.10;0.10;;;;;;;;;;5085993;28;20274;-76
2022/04/16 00:27:07;;;;;;;0.10;0.10;;;;;;;;;;5107704;28;20275;-76
2022/04/16 00:29:36;;;;;;;0.20;0.20;;;;;;;;;;5085438;28;20370;-76
2022/04/16 00:32:11;;;;;;;0.10;0.10;;;;;;;;;;5106752;28;20251;-76
2022/04/16 00:34:38;;;;;;;0.20;0.20;;;;;;;;;;5085488;28;20536;-77
2022/04/16 00:37:05;;;;;;;0.20;0.20;;;;;;;;;;5107337;28;20460;-78
2022/04/16 00:39:31;;;;;;;0.20;0.20;;;;;;;;;;5085328;28;20206;-77
2022/04/16 00:41:57;;;;;;;0.20;0.20;;;;;;;;;;5105580;28;20275;-77
2022/04/16 00:44:25;;;;;;;0.20;0.20;;;;;;;;;;5087191;28;20201;-77
2022/04/16 00:46:52;;;;;;;0.10;0.10;;;;;;;;;;5090761;28;20244;-76
2022/04/16 00:49:20;;;;;;;0.20;0.20;;;;;;;;;;5085634;28;20206;-77
2022/04/16 00:51:47;;;;;;;0.13;0.13;;;;;;;;;;5102494;28;20248;-77
2022/04/16 00:54:13;;;;;;;0.20;0.20;;;;;;;;;;5089928;28;20209;-76
2022/04/16 00:56:40;;;;;;;0.20;0.20;;;;;;;;;;5099373;28;20274;-76
2022/04/16 00:59:06;;;;;;;0.20;0.20;;;;;;;;;;5092232;28;20276;-77
2022/04/16 01:01:33;;;;;;;0.20;0.20;;;;;;;;;;5098514;28;20264;-78
2022/04/16 01:04:05;;;;;;;0.20;0.20;;;;;;;;;;5093439;28;20567;-77
2022/04/16 01:06:49;;;;;;;0.20;0.20;;;;;;;;;;5098246;28;20290;-78
2022/04/16 01:09:15;;;;;;;0.20;0.20;;;;;;;;;;5087327;28;20228;-76
2022/04/16 01:11:43;;;;;;;0.20;0.20;;;;;;;;;;5100475;28;20275;-77
2022/04/16 01:14:10;;;;;;;0.20;0.20;;;;;;;;;;5090896;28;20458;-76
2022/04/16 01:16:36;;;;;;;0.20;0.20;;;;;;;;;;5099285;28;20287;-77
2022/04/16 01:19:08;;;;;;;0.20;0.20;;;;;;;;;;5092225;28;20202;-77
2022/04/16 01:21:35;;;;;;;0.30;0.30;;;;;;;;;;5097757;28;20243;-77
2022/04/16 01:24:05;;;;;;;0.17;0.17;;;;;;;;;;5092867;28;20240;-76
2022/04/16 01:26:32;;;;;;;0.20;0.20;;;;;;;;;;5097081;28;20476;-78
2022/04/16 01:28:59;;;;;;;0.20;0.20;;;;;;;;;;5093650;28;20206;-77
2022/04/16 01:31:26;;;;;;;0.20;0.20;;;;;;;;;;5095077;28;20344;-77
2022/04/16 01:33:52;;;;;;;0.17;0.17;;;;;;;;;;5095545;28;20214;-77
2022/04/16 01:36:20;;;;;;;0.20;0.20;;;;;;;;;;5094236;28;20347;-78
2022/04/16 01:38:46;;;;;;;0.20;0.20;;;;;;;;;;5096037;28;20469;-77
2022/04/16 01:41:14;;;;;;;0.20;0.20;;;;;;;;;;5091672;28;20582;-76
2022/04/16 01:43:40;;;;;;;0.20;0.20;;;;;;;;;;5098672;28;20194;-76
2022/04/16 01:46:06;;;;;;;0.10;0.10;;;;;;;;;;5090445;28;20238;-77
2022/04/16 01:48:32;;;;;;;0.20;0.20;;;;;;;;;;5099977;28;20245;-77
2022/04/16 01:50:59;;;;;;;0.20;0.20;;;;;;;;;;5088523;28;20237;-78
2022/04/16 01:53:25;;;;;;;0.20;0.20;;;;;;;;;;5101726;28;20205;-77
2022/04/16 01:55:51;;;;;;;0.20;0.20;;;;;;;;;;5086071;28;20507;-76
2022/04/16 01:58:20;;;;;;;0.20;0.20;;;;;;;;;;5103874;28;20502;-77
2022/04/16 02:00:47;;;;;;;0.20;0.20;;;;;;;;;;5084710;28;20271;-76
2022/04/16 02:03:14;;;;;;;0.20;0.20;;;;;;;;;;5104464;28;20209;-77
2022/04/16 02:05:41;;;;;;;0.20;0.20;;;;;;;;;;5083260;28;20319;-77
2022/04/16 02:08:07;;;;;;;0.20;0.20;;;;;;;;;;5106265;28;20358;-77
2022/04/16 02:10:43;;;;;;;0.20;0.20;;;;;;;;;;5081565;28;20243;-77
2022/04/16 02:13:09;;;;;;;0.20;0.20;;;;;;;;;;5105851;28;20202;-77
2022/04/16 02:15:37;;;;;;;0.20;0.20;;;;;;;;;;5081079;28;20319;-77
2022/04/16 02:18:03;;;;;;;0.20;0.20;;;;;;;;;;5107683;28;20202;-77
2022/04/16 02:20:30;;;;;;;0.20;0.20;;;;;;;;;;5079897;28;20240;-77
2022/04/16 02:22:56;;;;;;;0.20;0.20;;;;;;;;;;5109309;28;20209;-77
2022/04/16 02:25:24;;;;;;;0.20;0.20;;;;;;;;;;5077792;28;20221;-77
2022/04/16 02:27:51;;;;;;;0.20;0.20;;;;;;;;;;5110897;28;20252;-78
2022/04/16 02:30:17;;;;;;;0.10;0.10;;;;;;;;;;5076287;28;20207;-77
2022/04/16 02:32:46;;;;;;;0.20;0.20;;;;;;;;;;5112374;28;20205;-76
2022/04/16 02:35:13;;;;;;;0.13;0.13;;;;;;;;;;5074935;28;20389;-77
2022/04/16 02:37:40;;;;;;;0.20;0.20;;;;;;;;;;5113597;28;20296;-77
2022/04/16 02:40:07;;;;;;;0.20;0.20;;;;;;;;;;5080175;28;20224;-76
2022/04/16 02:42:34;;;;;;;0.20;0.20;;;;;;;;;;5115336;28;20278;-77
2022/04/16 02:47:45;;;;;;;0.20;0.20;;;;;;;;;;5083028;28;20289;-78
2022/04/16 02:50:13;;;;;;;0.10;0.10;;;;;;;;;;5073227;28;20201;-76
2022/04/16 02:52:39;;;;;;;0.10;0.10;;;;;;;;;;5114720;28;20282;-76
2022/04/16 02:55:06;;;;;;;0.10;0.10;;;;;;;;;;5077325;28;20203;-77
2022/04/16 02:57:32;;;;;;;0.20;0.20;;;;;;;;;;5115110;28;20213;-76
2022/04/16 03:00:08;;;;;;;0.17;0.17;;;;;;;;;;5083294;28;20461;-77
2022/04/16 03:02:36;;;;;;;0.20;0.20;;;;;;;;;;5071675;28;20205;-78
2022/04/16 03:05:06;;;;;;;0.17;0.17;;;;;;;;;;5082916;28;20270;-76
2022/04/16 03:07:32;;;;;;;0.10;0.10;;;;;;;;;;5071366;28;20291;-75
2022/04/16 03:10:02;;;;;;;0.20;0.20;;;;;;;;;;5082494;28;20215;-75
2022/04/16 03:12:28;;;;;;;0.20;0.20;;;;;;;;;;5105127;28;20245;-75
2022/04/16 03:17:39;;;;;;;0.17;0.17;;;;;;;;;;5080683;28;20216;-75
2022/04/16 03:20:09;;;;;;;0.20;0.20;;;;;;;;;;5077296;28;20218;-76
2022/04/16 03:22:35;;;;;;;0.20;0.20;;;;;;;;;;5114402;28;20231;-75
2022/04/16 03:25:03;;;;;;;0.20;0.20;;;;;;;;;;5082835;28;20331;-74
2022/04/16 03:27:29;;;;;;;0.20;0.20;;;;;;;;;;5104895;28;20233;-75
2022/04/16 03:29:56;;;;;;;0.10;0.10;;;;;;;;;;5082943;28;20207;-76
2022/04/16 03:32:22;;;;;;;0.20;0.20;;;;;;;;;;5104962;28;20329;-74
2022/04/16 03:34:48;;;;;;;0.20;0.20;;;;;;;;;;5082289;28;20213;-75
2022/04/16 03:37:27;;;;;;;0.20;0.20;;;;;;;;;;5105240;28;20285;-76
2022/04/16 03:39:53;;;;;;;0.20;0.20;;;;;;;;;;5082766;28;20430;-74
2022/04/16 03:42:19;;;;;;;0.20;0.20;;;;;;;;;;5104630;28;20277;-75
2022/04/16 03:44:46;;;;;;;0.20;0.20;;;;;;;;;;5082502;28;20198;-77
2022/04/16 03:47:12;;;;;;;0.17;0.17;;;;;;;;;;5104727;28;20376;-75
2022/04/16 03:49:38;;;;;;;0.20;0.20;;;;;;;;;;5082416;28;20194;-76
2022/04/16 03:52:05;;;;;;;0.20;0.20;;;;;;;;;;5104396;28;20240;-75
2022/04/16 04:00:11;;;;;;;0.20;0.20;;;;;;;;;;5085845;28;20221;-75
2022/04/16 04:02:38;;;;;;;0.10;0.10;;;;;;;;;;5074472;28;20214;-75
2022/04/16 04:05:06;;;;;;;0.20;0.20;;;;;;;;;;5085687;28;20237;-76
2022/04/16 04:07:42;;;;;;;0.20;0.20;;;;;;;;;;5074695;28;20225;-76
2022/04/16 04:10:10;;;;;;;0.17;0.17;;;;;;;;;;5075550;28;20305;-76
2022/04/16 04:12:37;;;;;;;0.10;0.10;;;;;;;;;;5117995;28;20207;-75
2022/04/16 04:15:03;;;;;;;0.20;0.20;;;;;;;;;;5086044;28;20377;-75
2022/04/16 04:17:29;;;;;;;0.20;0.20;;;;;;;;;;5074354;28;20222;-75
2022/04/16 04:19:56;;;;;;;0.20;0.20;;;;;;;;;;5085707;28;20199;-75
2022/04/16 04:22:22;;;;;;;0.20;0.20;;;;;;;;;;5108360;28;20243;-75
2022/04/16 04:24:48;;;;;;;0.20;0.20;;;;;;;;;;5085730;28;20211;-75
2022/04/16 04:27:16;;;;;;;0.10;0.10;;;;;;;;;;5107853;28;20300;-74
2022/04/16 04:29:42;;;;;;;0.10;0.10;;;;;;;;;;5085544;28;20433;-74
2022/04/16 04:32:09;;;;;;;0.20;0.20;;;;;;;;;;5107738;28;20268;-75
2022/04/16 04:34:35;;;;;;;0.20;0.20;;;;;;;;;;5085038;28;20222;-74
2022/04/16 04:37:01;;;;;;;0.20;0.20;;;;;;;;;;5106487;28;20240;-75
2022/04/16 04:39:28;;;;;;;0.10;0.10;;;;;;;;;;5086296;28;20195;-75
2022/04/16 04:41:54;;;;;;;0.20;0.20;;;;;;;;;;5103896;28;20652;-72
2022/04/16 04:44:22;;;;;;;0.20;0.20;;;;;;;;;;5088191;28;20319;-74
2022/04/16 04:46:48;;;;;;;0.20;0.20;;;;;;;;;;5102728;28;20522;-74
2022/04/16 04:49:14;;;;;;;0.10;0.10;;;;;;;;;;5089819;28;20225;-75
2022/04/16 04:51:41;;;;;;;0.20;0.20;;;;;;;;;;5100586;28;20293;-75
2022/04/16 04:54:08;;;;;;;0.20;0.20;;;;;;;;;;5091586;28;20204;-76
2022/04/16 04:56:40;;;;;;;0.70;0.70;;;;;;;;;;5098606;28;20237;-76
2022/04/16 04:59:06;;;;;;;0.13;0.13;;;;;;;;;;5091807;28;20217;-74
2022/04/16 05:01:34;;;;;;;0.20;0.20;;;;;;;;;;5098108;28;20266;-74
2022/04/16 05:04:00;;;;;;;0.10;0.10;;;;;;;;;;5093529;28;20203;-74
2022/04/16 05:06:27;;;;;;;0.20;0.20;;;;;;;;;;5096748;28;20435;-75
2022/04/16 05:08:53;;;;;;;0.20;0.20;;;;;;;;;;5094857;28;20449;-75
2022/04/16 05:11:19;;;;;;;0.20;0.20;;;;;;;;;;5094433;28;20293;-75
2022/04/16 05:13:46;;;;;;;0.17;0.17;;;;;;;;;;5097019;28;20206;-75
2022/04/16 05:16:13;;;;;;;0.10;0.10;;;;;;;;;;5091920;28;20268;-74
2022/04/16 05:18:41;;;;;;;0.10;0.10;;;;;;;;;;5098802;28;20236;-75
2022/04/16 05:21:07;;;;;;;0.20;0.20;;;;;;;;;;5089593;28;20273;-75
2022/04/16 05:23:35;;;;;;;0.20;0.20;;;;;;;;;;5101216;28;20205;-75
2022/04/16 05:26:01;;;;;;;0.20;0.20;;;;;;;;;;5089294;28;20239;-74
2022/04/16 05:28:28;;;;;;;0.20;0.20;;;;;;;;;;5101554;28;20293;-74
2022/04/16 05:30:58;;;;;;;0.10;0.10;;;;;;;;;;5086236;28;20240;-75
2022/04/16 05:36:18;;;;;;;0.20;0.20;;;;;;;;;;5090590;28;20244;-75
2022/04/16 05:38:45;;;;;;;0.10;0.10;;;;;;;;;;5097333;28;20207;-74
2022/04/16 05:41:13;;;;;;;0.20;0.20;;;;;;;;;;5091795;28;20601;-74
2022/04/16 05:43:39;;;;;;;0.20;0.20;;;;;;;;;;5097891;28;20198;-75
2022/04/16 05:46:05;;;;;;;0.30;0.30;;;;;;;;;;5090293;28;20246;-75
2022/04/16 05:48:32;;;;;;;0.20;0.20;;;;;;;;;;5100171;28;20275;-75
2022/04/16 05:50:58;;;;;;;0.10;0.10;;;;;;;;;;5088134;28;20246;-75
2022/04/16 05:53:26;;;;;;;0.10;0.10;;;;;;;;;;5101524;28;20273;-75
2022/04/16 05:55:52;;;;;;;0.47;0.47;;;;;;;;;;5086497;28;20248;-76
2022/04/16 05:58:19;;;;;;;0.10;0.10;;;;;;;;;;5103155;28;20498;-74
2022/04/16 06:00:45;;;;;;;0.13;0.13;;;;;;;;;;5083857;28;20247;-75
2022/04/16 06:03:14;;;;;;;0.13;0.13;;;;;;;;;;5105654;28;20259;-75
2022/04/16 06:05:40;;;;;;;0.20;0.20;;;;;;;;;;5079871;28;20263;-74
2022/04/16 06:08:07;;;;;;;0.20;0.20;;;;;;;;;;5106575;28;20229;-75
2022/04/16 06:10:36;;;;;;;0.20;0.20;;;;;;;;;;5081102;28;20249;-74
2022/04/16 06:13:02;;;;;;;0.20;0.20;;;;;;;;;;5107307;28;20207;-76
2022/04/16 06:15:29;;;;;;;0.10;0.10;;;;;;;;;;5079550;28;20270;-76
2022/04/16 06:17:55;;;;;;;0.10;0.10;;;;;;;;;;5109676;28;20218;-75
2022/04/16 06:20:32;;;;;;;0.20;0.20;;;;;;;;;;5077046;28;20248;-74
2022/04/16 06:22:58;;;;;;;0.10;0.10;;;;;;;;;;5108856;28;20327;-75
2022/04/16 06:25:24;;;;;;;0.13;0.13;;;;;;;;;;5078156;28;20253;-75
2022/04/16 06:27:52;;;;;;;0.20;0.20;;;;;;;;;;5110320;28;20248;-75
2022/04/16 06:30:18;;;;;;;0.17;0.17;;;;;;;;;;5076852;28;20206;-74
2022/04/16 06:32:45;;;;;;;0.10;0.10;;;;;;;;;;5111937;28;20214;-76
2022/04/16 06:35:13;;;;;;;0.10;0.10;;;;;;;;;;5074643;28;20288;-74
2022/04/16 06:37:40;;;;;;;0.13;0.13;;;;;;;;;;5113571;28;20296;-75
2022/04/16 06:40:07;;;;;;;0.10;0.10;;;;;;;;;;5073478;28;20577;-74
2022/04/16 06:42:33;;;;;;;0.10;0.10;;;;;;;;;;5114769;28;20261;-75
2022/04/16 06:45:01;;;;;;;0.20;0.20;;;;;;;;;;5082988;28;20216;-74
2022/04/16 06:47:29;;;;;;;0.10;0.10;;;;;;;;;;5105544;28;20242;-74
2022/04/16 06:49:55;;;;;;;0.10;0.10;;;;;;;;;;5082916;28;20242;-74
2022/04/16 06:52:22;;;;;;;0.20;0.20;;;;;;;;;;5105314;28;20544;-75
2022/04/16 06:55:04;;;;;;;0.10;0.10;;;;;;;;;;5084435;28;20206;-79
2022/04/16 07:00:34;;;;;;;0.10;0.10;;;;;;;;;;5029822;28;20208;-77
2022/04/16 07:03:08;;;;;;;0.10;0.10;;;;;;;;;;4948262;29;20275;-78
2022/04/16 07:05:46;;;;;;;0.10;0.10;;;;;;;;;;4927848;29;20257;-78
2022/04/16 07:08:12;;;;;;;0.10;0.10;;;;;;;;;;4928000;29;20411;-74
2022/04/16 07:10:39;;;;;;;0.10;0.10;;;;;;;;;;4925875;29;20248;-73
2022/04/16 07:13:06;;;;;;;0.10;0.10;;;;;;;;;;4905426;29;20214;-72
2022/04/16 07:18:23;;;;;;;0.10;0.10;;;;;;;;;;4905199;29;20205;-76
2022/04/16 07:20:50;;;;;;;0.10;0.10;;;;;;;;;;4895882;29;20314;-77
2022/04/16 07:23:16;;;;;;;0.10;0.10;;;;;;;;;;4941800;29;20215;-76
2022/04/16 07:25:45;;;;;;;0.10;0.10;;;;;;;;;;4938728;28;20267;-77
2022/04/16 07:28:12;;;;;;;0.10;0.10;;;;;;;;;;4953959;29;20211;-76
2022/04/16 07:30:39;;;;;;;0.10;0.10;;;;;;;;;;4938082;28;20245;-77
2022/04/16 07:33:05;;;;;;;0.10;0.10;;;;;;;;;;5002829;28;20212;-77
2022/04/16 07:35:42;;;;;;;0.10;0.10;;;;;;;;;;5016589;28;20615;-77
2022/04/16 07:38:09;;;;;;;0.10;0.10;;;;;;;;;;5100234;28;20220;-77
2022/04/16 07:40:40;;;;;;;0.10;0.10;;;;;;;;;;5074317;28;20273;-75
2022/04/16 07:43:26;;;;;;;0.10;0.10;;;;;;;;;;5086636;28;20460;-76
2022/04/16 07:45:53;;;;;;;0.10;0.10;;;;;;;;;;5086754;28;20283;-76
2022/04/16 07:51:03;;;;;;;0.10;0.10;;;;;;;;;;5088862;28;20248;-76
2022/04/16 07:53:30;;;;;;;0.10;0.10;;;;;;;;;;5104287;28;20210;-75
2022/04/16 07:55:56;;;;;;;0.10;0.10;;;;;;;;;;5088836;28;20243;-73
2022/04/16 07:58:23;;;;;;;0.10;0.10;;;;;;;;;;5105826;28;20397;-74
2022/04/16 08:00:49;;;;;;;0.10;0.10;;;;;;;;;;5084298;28;20244;-74
2022/04/16 08:03:15;;;;;;;0.10;0.10;;;;;;;;;;5106791;28;20206;-74
2022/04/16 08:05:44;;;;;;;0.10;0.10;;;;;;;;;;5084913;28;20238;-77
2022/04/16 08:08:13;;;;;;;0.10;0.10;;;;;;;;;;5109184;28;20489;-78
2022/04/16 08:10:39;;;;;;;0.10;0.10;;;;;;;;;;5083420;28;20238;-76
2022/04/16 08:13:07;;;;;;;0.10;0.10;;;;;;;;;;5108726;28;20216;-75
2022/04/16 08:15:34;;;;;;;0.10;0.10;;;;;;;;;;5083159;28;20243;-75
2022/04/16 08:18:00;;;;;;;0.10;0.10;;;;;;;;;;5110734;28;20444;-75
2022/04/16 08:20:28;;;;;;;0.10;0.10;;;;;;;;;;5080888;28;20613;-77
2022/04/16 08:22:55;;;;;;;0.10;0.10;;;;;;;;;;5112292;28;20391;-75
2022/04/16 08:28:10;;;;;;;0.10;0.10;;;;;;;;;;5108024;28;20209;-75
2022/04/16 08:30:36;;;;;;;0.10;0.10;;;;;;;;;;5083147;28;20466;-76
2022/04/16 08:33:02;;;;;;;0.10;0.10;;;;;;;;;;5110443;28;20210;-76
2022/04/16 08:35:28;;;;;;;0.10;0.10;;;;;;;;;;5080809;28;20251;-74
2022/04/16 08:37:55;;;;;;;0.10;0.10;;;;;;;;;;5112615;28;20231;-75
2022/04/16 08:40:22;;;;;;;0.10;0.10;;;;;;;;;;5079141;28;20226;-74
2022/04/16 08:42:49;;;;;;;0.10;0.10;;;;;;;;;;5113179;28;20221;-75
2022/04/16 08:45:16;;;;;;;0.10;0.10;;;;;;;;;;5077698;28;20413;-76
2022/04/16 08:47:45;;;;;;;0.10;0.10;;;;;;;;;;5115126;28;20223;-76
2022/04/16 08:50:12;;;;;;;0.10;0.10;;;;;;;;;;5076119;28;20231;-75
2022/04/16 08:52:39;;;;;;;0.10;0.10;;;;;;;;;;5116020;28;20242;-75
2022/04/16 08:55:07;;;;;;;0.10;0.10;;;;;;;;;;5080365;28;20211;-77
2022/04/16 08:57:35;;;;;;;0.10;0.10;;;;;;;;;;5100263;28;20440;-75
2022/04/16 09:00:02;;;;;;;0.10;0.10;;;;;;;;;;5085161;28;20579;-75
2022/04/16 09:02:38;;;;;;;0.10;0.10;;;;;;;;;;5107185;28;20494;-77
2022/04/16 09:05:05;;;;;;;0.10;0.10;;;;;;;;;;5084692;28;20205;-76
2022/04/16 09:07:32;;;;;;;0.10;0.10;;;;;;;;;;5073447;28;20297;-74
2022/04/16 09:10:08;;;;;;;0.10;0.10;;;;;;;;;;5084632;28;20472;-75
2022/04/16 09:12:50;;;;;;;0.10;0.10;;;;;;;;;;5073582;28;20213;-76
2022/04/16 09:15:18;;;;;;;0.10;0.10;;;;;;;;;;5076355;28;20239;-75
2022/04/16 09:17:45;;;;;;;0.10;0.10;;;;;;;;;;5113724;28;20212;-76
2022/04/16 09:20:12;;;;;;;0.10;0.10;;;;;;;;;;5085355;28;20209;-78
2022/04/16 09:22:40;;;;;;;0.10;0.10;;;;;;;;;;5108673;28;20315;-75
2022/04/16 09:25:13;;;;;;;0.10;0.10;;;;;;;;;;5083367;28;20268;-76
2022/04/16 09:27:40;;;;;;;0.10;0.10;;;;;;;;;;5116335;28;20220;-76
2022/04/16 09:30:07;;;;;;;0.10;0.10;;;;;;;;;;5085393;28;20390;-78
2022/04/16 09:32:48;;;;;;;0.10;0.10;;;;;;;;;;5108127;28;20462;-77
2022/04/16 09:35:31;;;;;;;0.10;0.10;;;;;;;;;;5074901;28;20209;-76
2022/04/16 09:37:58;;;;;;;0.00;0.00;;;;;;;;;;5112682;28;20543;-77
2022/04/16 09:40:25;;;;;;;0.10;0.10;;;;;;;;;;5078791;28;20207;-77
2022/04/16 09:42:54;;;;;;;0.10;0.10;;;;;;;;;;5111997;28;20214;-75
2022/04/16 09:45:21;;;;;;;0.10;0.10;;;;;;;;;;5077404;28;20204;-77
2022/04/16 09:47:48;;;;;;;0.10;0.10;;;;;;;;;;5113387;28;20205;-76
2022/04/16 09:50:15;;;;;;;0.00;0.00;;;;;;;;;;5079078;28;20221;-77
2022/04/16 09:52:43;;;;;;;0.10;0.10;;;;;;;;;;5115101;28;20306;-77
2022/04/16 09:55:10;;;;;;;0.00;0.00;;;;;;;;;;5075974;28;20209;-76
2022/04/16 09:57:38;;;;;;;0.08;0.08;;;;;;;;;;5115439;28;20201;-77
2022/04/16 10:00:05;;;;;;;0.10;0.10;;;;;;;;;;5083845;28;20205;-77
2022/04/16 10:02:33;;;;;;;0.00;0.00;;;;;;;;;;5072653;28;20201;-76
2022/04/16 10:04:59;;;;;;;0.00;0.00;;;;;;;;;;5083722;28;20210;-76
2022/04/16 10:07:26;;;;;;;0.10;0.10;;;;;;;;;;5105860;28;20245;-74
2022/04/16 10:09:54;;;;;;;0.00;0.00;;;;;;;;;;5083748;28;20250;-74
2022/04/16 10:15:18;;;;;;;0.00;0.00;;;;;;;;;;5083647;28;20201;-73
2022/04/16 10:17:47;;;;;;;0.00;0.00;;;;;;;;;;5071689;28;20206;-70
2022/04/16 10:20:16;;;;;;;0.03;0.03;;;;;;;;;;5075431;28;20220;-69
2022/04/16 10:22:52;;;;;;;0.00;0.00;;;;;;;;;;5112512;28;20327;-70
2022/04/16 10:25:30;;;;;;;0.10;0.10;;;;;;;;;;5076343;28;20194;-69
2022/04/16 10:28:00;;;;;;;0.00;0.00;;;;;;;;;;5108676;28;20272;-70
2022/04/16 10:30:47;;;;;;;0.10;0.10;;;;;;;;;;5078248;28;20250;-70
2022/04/16 10:33:19;;;;;;;0.00;0.00;;;;;;;;;;5103669;28;20203;-71
2022/04/16 10:35:49;;;;;;;0.00;0.00;;;;;;;;;;5083290;28;20283;-70
2022/04/16 10:38:21;;;;;;;0.00;0.00;;;;;;;;;;5103203;28;20446;-68
2022/04/16 10:40:54;;;;;;;0.00;0.00;;;;;;;;;;5082197;28;20233;-71
2022/04/16 10:43:26;;;;;;;0.00;0.00;;;;;;;;;;5103460;28;20277;-71
2022/04/16 10:45:56;;;;;;;0.00;0.00;;;;;;;;;;5085512;28;20242;-70
2022/04/16 10:48:31;;;;;;;0.00;0.00;;;;;;;;;;5101652;28;20207;-70
2022/04/16 10:50:58;;;;;;;0.00;0.00;;;;;;;;;;5086858;28;20237;-70
2022/04/16 10:53:29;;;;;;;0.00;0.00;;;;;;;;;;5100518;28;20210;-70
2022/04/16 10:55:56;;;;;;;0.10;0.10;;;;;;;;;;5086405;28;20295;-68
2022/04/16 10:58:30;;;;;;;0.00;0.00;;;;;;;;;;5101060;28;20199;-69
2022/04/16 11:01:06;;;;;;;0.10;0.10;;;;;;;;;;5086276;28;20241;-69
2022/04/16 11:03:34;;;;;;;0.00;0.00;;;;;;;;;;5098378;28;20207;-71
2022/04/16 11:06:01;;;;;;;0.00;0.00;;;;;;;;;;5087042;28;20654;-68
2022/04/16 11:08:28;;;;;;;0.00;0.00;;;;;;;;;;5099809;28;20230;-69
2022/04/16 11:10:56;;;;;;;0.05;0.05;;;;;;;;;;5085479;28;20238;-70
2022/04/16 11:13:23;;;;;;;0.00;0.00;;;;;;;;;;5101168;28;20203;-71
2022/04/16 11:15:50;;;;;;;0.00;0.00;;;;;;;;;;5083180;28;20241;-70
2022/04/16 11:18:17;;;;;;;0.10;0.10;;;;;;;;;;5103957;28;20215;-72
2022/04/16 11:20:53;;;;;;;0.00;0.00;;;;;;;;;;5079707;28;20583;-71
2022/04/16 11:23:19;;;;;;;0.00;0.00;;;;;;;;;;5104376;28;20209;-71
2022/04/16 11:36:50;;;;;;;0.10;0.10;;;;;;;;;;5098538;28;20250;-71
2022/04/16 11:39:17;;;;;;;0.10;0.10;;;;;;;;;;5087274;28;20230;-72
2022/04/16 11:41:46;;;;;;;0.10;0.10;;;;;;;;;;5098300;28;20272;-71
2022/04/16 11:44:12;;;;;;;0.08;0.08;;;;;;;;;;5087974;28;20212;-72
2022/04/16 11:46:41;;;;;;;0.10;0.10;;;;;;;;;;5085189;28;20250;-72
2022/04/16 11:49:07;;;;;;;0.10;0.10;;;;;;;;;;5090924;28;20434;-72
2022/04/16 11:51:37;;;;;;;0.00;0.00;;;;;;;;;;5093367;28;20516;-71
2022/04/16 11:54:06;;;;;;;0.10;0.10;;;;;;;;;;5092631;28;20246;-72
2022/04/16 11:56:32;;;;;;;0.00;0.00;;;;;;;;;;5093245;28;20245;-72
2022/04/16 11:59:00;;;;;;;0.10;0.10;;;;;;;;;;5093777;28;20251;-70
2022/04/16 12:01:26;;;;;;;0.10;0.10;;;;;;;;;;5092927;28;20582;-70
2022/04/16 12:03:53;;;;;;;0.10;0.10;;;;;;;;;;5093919;28;20295;-70
2022/04/16 12:06:19;;;;;;;0.10;0.10;;;;;;;;;;5092032;28;20258;-71
2022/04/16 12:08:47;;;;;;;0.10;0.10;;;;;;;;;;5094439;28;20212;-70
2022/04/16 12:11:14;;;;;;;0.00;0.00;;;;;;;;;;5086250;28;20270;-71
2022/04/16 12:13:41;;;;;;;0.00;0.00;;;;;;;;;;5099911;28;20208;-71
2022/04/16 12:16:08;;;;;;;0.10;0.10;;;;;;;;;;5088555;28;20242;-71
2022/04/16 12:18:35;;;;;;;0.00;0.00;;;;;;;;;;5098686;28;20213;-71
2022/04/16 12:21:05;;;;;;;0.10;0.10;;;;;;;;;;5090899;28;20229;-70
2022/04/16 12:23:32;;;;;;;0.05;0.05;;;;;;;;;;5102006;28;20235;-70
2022/04/16 12:26:05;;;;;;;0.10;0.10;;;;;;;;;;5089928;28;20253;-70
2022/04/16 12:28:37;;;;;;;0.10;0.10;;;;;;;;;;5101537;28;20381;-69
2022/04/16 12:31:04;;;;;;;0.07;0.07;;;;;;;;;;5091149;28;20546;-69
2022/04/16 12:33:30;;;;;;;0.00;0.00;;;;;;;;;;5102155;28;20232;-71
2022/04/16 12:35:58;;;;;;;0.10;0.10;;;;;;;;;;5089024;28;20618;-70
2022/04/16 12:38:25;;;;;;;0.00;0.00;;;;;;;;;;5103406;28;20354;-71
2022/04/16 12:40:51;;;;;;;0.10;0.10;;;;;;;;;;5087177;28;20239;-71
2022/04/16 12:43:18;;;;;;;0.10;0.10;;;;;;;;;;5104901;28;20285;-71
2022/04/16 12:45:45;;;;;;;0.10;0.10;;;;;;;;;;5085231;28;20241;-71
2022/04/16 12:48:12;;;;;;;0.00;0.00;;;;;;;;;;5106737;28;20214;-70
2022/04/16 12:50:38;;;;;;;0.10;0.10;;;;;;;;;;5083212;28;20308;-71
2022/04/16 12:53:04;;;;;;;0.10;0.10;;;;;;;;;;5108886;28;20217;-71
2022/04/16 12:55:31;;;;;;;0.00;0.00;;;;;;;;;;5081858;28;20272;-71
2022/04/16 12:57:57;;;;;;;0.10;0.10;;;;;;;;;;5110365;28;20203;-71
2022/04/16 13:00:24;;;;;;;0.10;0.10;;;;;;;;;;5079664;28;20206;-70
2022/04/16 13:02:51;;;;;;;0.00;0.00;;;;;;;;;;5112037;28;20528;-70
2022/04/16 13:05:18;;;;;;;0.10;0.10;;;;;;;;;;5078186;28;20212;-74
2022/04/16 13:07:46;;;;;;;0.10;0.10;;;;;;;;;;5113954;28;20207;-74
2022/04/16 13:10:13;;;;;;;0.10;0.10;;;;;;;;;;5077310;28;20221;-75
2022/04/16 13:12:39;;;;;;;0.10;0.10;;;;;;;;;;5116701;28;20418;-74
2022/04/16 13:15:06;;;;;;;0.10;0.10;;;;;;;;;;5081266;28;20267;-75
2022/04/16 13:17:32;;;;;;;0.10;0.10;;;;;;;;;;5116887;28;20221;-73
2022/04/16 13:20:00;;;;;;;0.10;0.10;;;;;;;;;;5084866;28;20244;-73
2022/04/16 13:22:27;;;;;;;0.10;0.10;;;;;;;;;;5108215;28;20493;-73
2022/04/16 13:25:05;;;;;;;0.10;0.10;;;;;;;;;;5085610;28;20206;-72
2022/04/16 13:27:34;;;;;;;0.10;0.10;;;;;;;;;;5107222;28;20312;-74
2022/04/16 13:30:02;;;;;;;0.10;0.10;;;;;;;;;;5084401;28;20209;-73
2022/04/16 13:32:28;;;;;;;0.00;0.00;;;;;;;;;;5106989;28;20438;-73
2022/04/16 13:34:55;;;;;;;0.10;0.10;;;;;;;;;;5084596;28;20283;-73
2022/04/16 13:37:23;;;;;;;0.03;0.03;;;;;;;;;;5106497;28;20290;-74
2022/04/16 13:42:34;;;;;;;0.00;0.00;;;;;;;;;;5072371;28;20452;-72
2022/04/16 13:45:00;;;;;;;0.10;0.10;;;;;;;;;;5084356;28;20541;-73
2022/04/16 13:47:27;;;;;;;0.10;0.10;;;;;;;;;;5106695;28;20240;-74
2022/04/16 13:49:53;;;;;;;0.10;0.10;;;;;;;;;;5084749;28;20259;-73
2022/04/16 13:52:22;;;;;;;0.10;0.10;;;;;;;;;;5106524;28;20320;-73
2022/04/16 13:54:49;;;;;;;0.10;0.10;;;;;;;;;;5084465;28;20487;-73
2022/04/16 13:57:16;;;;;;;0.10;0.10;;;;;;;;;;5106421;28;20297;-74
2022/04/16 13:59:42;;;;;;;0.10;0.10;;;;;;;;;;5084492;28;20208;-73
2022/04/16 14:02:11;;;;;;;0.00;0.00;;;;;;;;;;5106497;28;20434;-74
2022/04/16 14:07:20;;;;;;;0.10;0.10;;;;;;;;;;5106653;28;20245;-73
2022/04/16 14:09:47;;;;;;;0.00;0.00;;;;;;;;;;5083909;28;20210;-75
2022/04/16 14:12:17;;;;;;;0.10;0.10;;;;;;;;;;5106360;28;20498;-74
2022/04/16 14:14:44;;;;;;;0.10;0.10;;;;;;;;;;5084039;28;20243;-74
2022/04/16 14:17:10;;;;;;;0.00;0.00;;;;;;;;;;5106290;28;20244;-72
2022/04/16 14:19:37;;;;;;;0.10;0.10;;;;;;;;;;5083996;28;20206;-73
2022/04/16 14:22:03;;;;;;;0.00;0.00;;;;;;;;;;5104454;28;20372;-72
2022/04/16 14:24:30;;;;;;;0.10;0.10;;;;;;;;;;5084577;28;20202;-76
2022/04/16 14:26:56;;;;;;;0.10;0.10;;;;;;;;;;5102745;28;20486;-74
2022/04/16 14:29:23;;;;;;;0.10;0.10;;;;;;;;;;5085919;28;20431;-70
2022/04/16 14:31:50;;;;;;;0.10;0.10;;;;;;;;;;5100980;28;20289;-73
2022/04/16 14:34:17;;;;;;;0.00;0.00;;;;;;;;;;5087856;28;20215;-69
2022/04/16 14:36:43;;;;;;;0.07;0.07;;;;;;;;;;5099841;28;20243;-69
2022/04/16 14:39:10;;;;;;;0.10;0.10;;;;;;;;;;5088960;28;20211;-70
2022/04/16 14:41:36;;;;;;;0.10;0.10;;;;;;;;;;5096632;28;20244;-69
2022/04/16 14:44:05;;;;;;;0.10;0.10;;;;;;;;;;5090888;28;20346;-72
2022/04/16 14:46:33;;;;;;;0.00;0.00;;;;;;;;;;5096144;28;20245;-71
2022/04/16 14:48:59;;;;;;;0.10;0.10;;;;;;;;;;5091850;28;20217;-71
2022/04/16 14:51:29;;;;;;;0.10;0.10;;;;;;;;;;5094474;28;20235;-73
2022/04/16 14:53:55;;;;;;;0.10;0.10;;;;;;;;;;5092428;28;20394;-74
2022/04/16 14:56:21;;;;;;;0.10;0.10;;;;;;;;;;5093447;28;20485;-71
2022/04/16 14:58:47;;;;;;;0.10;0.10;;;;;;;;;;5094710;28;20248;-73
2022/04/16 15:01:14;;;;;;;0.10;0.10;;;;;;;;;;5091481;28;20234;-72
2022/04/16 15:03:42;;;;;;;0.07;0.07;;;;;;;;;;5096268;28;20248;-68
2022/04/16 15:06:09;;;;;;;0.10;0.10;;;;;;;;;;5089240;28;20314;-72
2022/04/16 15:08:35;;;;;;;0.10;0.10;;;;;;;;;;5098606;28;20232;-71
2022/04/16 15:11:02;;;;;;;0.10;0.10;;;;;;;;;;5087112;28;20579;-71
2022/04/16 15:13:28;;;;;;;0.10;0.10;;;;;;;;;;5100529;28;20206;-75
2022/04/16 15:15:57;;;;;;;0.00;0.00;;;;;;;;;;5085934;28;20510;-75
2022/04/16 15:18:23;;;;;;;0.10;0.10;;;;;;;;;;5101221;28;20204;-76
2022/04/16 15:20:51;;;;;;;0.03;0.03;;;;;;;;;;5084922;28;20238;-75
2022/04/16 15:23:17;;;;;;;0.10;0.10;;;;;;;;;;5102795;28;20202;-77
2022/04/16 15:25:52;;;;;;;0.10;0.10;;;;;;;;;;5083126;28;20536;-74
2022/04/16 15:28:21;;;;;;;0.00;0.00;;;;;;;;;;5101844;28;20235;-74
2022/04/16 15:30:48;;;;;;;0.10;0.10;;;;;;;;;;5083712;28;20269;-73